Saturday, November 18, 2017, 11:48 PM EST
Back to Local

KEEN, Keene, Dillant-hopkins Airport

Location: Keene, NH, United States Lat: 42.9
Local Time: 11:48 PM EST ( 4:48 GMT) Lon: -72.267
Time Zone: US/Eastern Elev: 488 ft

Show me the last for .
Show Decoded

2017-11-18 22:56 METAR KEEN 190356Z AUTO 00000KT 4SM BR OVC013 02/01 A2946 RMK AO2 RAE53 SLP997
                 P0000 T00220011 FZRANO =
2017-11-18 22:44 METAR KEEN 190344Z AUTO 00000KT 5SM -RA BR OVC013 02/01 A2947 RMK AO2 P0000
                 FZRANO =
2017-11-18 21:56 METAR KEEN 190256Z AUTO 00000KT 4SM -RA BR OVC015 02/01 A2950 RMK AO2 UPB14E51
                 SLP009 P0000 60006 T00170006 58040 FZRANO =
2017-11-18 21:07 METAR KEEN 190207Z AUTO 00000KT 7SM -RA OVC017 02/00 A2953 RMK AO2 P0000 FZRANO
                 =
2017-11-18 20:56 METAR KEEN 190156Z AUTO 00000KT 6SM -RA BR BKN014 BKN020 OVC027 02/00 A2954 RMK
                 AO2 SLP022 P0004 T00170000 FZRANO =
2017-11-18 19:56 METAR KEEN 190056Z AUTO 00000KT 9SM -RA BKN022 OVC034 01/01 A2959 RMK AO2
                 UPB07E09 SLP040 P0002 T00110006 FZRANO =
2017-11-18 19:24 METAR KEEN 190024Z AUTO 00000KT 9SM -RA SCT022 OVC036 01/M01 A2959 RMK AO2
                 UPB07E09 P0001 FZRANO =
2017-11-18 18:56 METAR KEEN 182356Z AUTO 00000KT 10SM RA BKN019 OVC025 02/00 A2962 RMK AO2
                 RAE02B31UPB28E46 SLP050 P0000 60000 T00170000 10044 20011 58022 FZRANO =
2017-11-18 18:24 METAR KEEN 182324Z AUTO 00000KT 10SM BKN024 BKN030 OVC035 01/M02 A2964 RMK AO2
                 RAE02 P0000 FZRANO TSNO =
2017-11-18 17:56 METAR KEEN 182256Z AUTO 00000KT 10SM -RA FEW026 OVC032 02/M02 A2965 RMK AO2
                 RAE28B50UPB03E12B28E50 SLP062 P0000 T00171017 FZRANO =
2017-11-18 16:56 METAR KEEN 182156Z AUTO 00000KT 10SM -RA OVC050 03/M03 A2967 RMK AO2 RAB27
                 SLP067 P0000 T00281033 =
2017-11-18 15:56 METAR KEEN 182056Z AUTO 17005KT 10SM FEW041 OVC055 04/M03 A2969 RMK AO2 SLP073
                 60000 T00441028 56031 =
2017-11-18 14:56 METAR KEEN 181956Z AUTO 17007KT 10SM SCT065 BKN080 OVC090 04/M04 A2971 RMK AO2
                 UPE00 SLP080 P0000 T00441044 =
2017-11-18 13:56 METAR KEEN 181856Z AUTO 00000KT 10SM UP BKN110 03/M05 A2973 RMK AO2
                 RAB26E55UPB35E37B55 SLP090 P0000 T00281050 =
2017-11-18 12:56 METAR KEEN 181756Z AUTO 00000KT 10SM BKN080 BKN120 02/M05 A2978 RMK AO2 SLP105
                 60000 T00221050 10022 21083 56042 FZRANO =
2017-11-18 11:56 METAR KEEN 181656Z AUTO 29003KT 10SM CLR 02/M06 A2981 RMK AO2 SLP117 T00171061
                 FZRANO =
2017-11-18 10:56 METAR KEEN 181556Z AUTO 20003KT 10SM CLR 00/M04 A2987 RMK AO2 UPB22E55 SLP133
                 P0000 T00001044 FZRANO =
2017-11-18 09:56 METAR KEEN 181456Z AUTO 00000KT 10SM CLR M02/M04 A2990 RMK AO2
                 UPB04E10B35E51SNE04 SLP147 P0000 60000 T10221044 58024 FZRANO =
2017-11-18 08:56 METAR KEEN 181356Z AUTO 30006KT 8SM -SN CLR M03/M04 A2993 RMK AO2
                 UPB35E55SNB37E46B55 SLP157 P0000 T10281039 FZRANO =
2017-11-18 07:56 METAR KEEN 181256Z AUTO 00000KT 10SM CLR M06/M07 A2995 RMK AO2 SLP164 T10611072
                 FZRANO =
2017-11-18 06:56 METAR KEEN 181156Z AUTO 00000KT 10SM CLR M08/M09 A2998 RMK AO2 SLP172 T10831094
                 11067 21083 55001 FZRANO =
2017-11-18 05:56 METAR KEEN 181056Z AUTO 00000KT 10SM CLR M08/M08 A2996 RMK AO2 SLP167 T10781083
                 FZRANO =
2017-11-18 04:56 METAR KEEN 180956Z AUTO 20003KT 10SM CLR M08/M09 A2998 RMK AO2 SLP172 T10781089
                 FZRANO =
2017-11-18 03:56 METAR KEEN 180856Z AUTO 20005KT 10SM CLR M08/M09 A2998 RMK AO2 SLP174 T10781089
                 57007 FZRANO TSNO =
2017-11-18 02:56 METAR KEEN 180756Z AUTO 00000KT 10SM CLR M07/M08 A2998 RMK AO2 SLP173 T10721083
                 FZRANO =
2017-11-18 01:56 METAR KEEN 180656Z AUTO 00000KT 10SM CLR M07/M08 A3000 RMK AO2 SLP180 T10721078
                 FZRANO =
2017-11-18 00:56 METAR KEEN 180556Z AUTO 19003KT 10SM CLR M07/M08 A3000 RMK AO2 SLP180 T10671083
                 11033 21072 58003 FZRANO =
2017-11-17 23:56 METAR KEEN 180456Z AUTO 00000KT 10SM CLR M07/M09 A3002 RMK AO2 SLP186 T10721094
                 400501072 FZRANO =

Support USWX by starting your Amazon purchase here.